createdAt,value
2018-06-18T00:01:27.093Z,5.97
2018-06-18T00:03:55.607Z,6.40
2018-06-18T00:06:24.158Z,5.83
2018-06-18T00:08:52.716Z,6.40
2018-06-18T00:11:21.268Z,4.90
2018-06-18T00:13:49.779Z,5.70
2018-06-18T00:16:18.369Z,5.50
2018-06-18T00:18:46.941Z,5.07
2018-06-18T00:21:15.547Z,6.50
2018-06-18T00:23:44.117Z,5.50
2018-06-18T00:26:12.677Z,6.30
2018-06-18T00:28:41.288Z,5.43
2018-06-18T00:31:09.927Z,6.13
2018-06-18T00:33:38.478Z,5.50
2018-06-18T00:36:07.030Z,6.50
2018-06-18T00:38:35.617Z,6.77
2018-06-18T00:41:04.135Z,6.63
2018-06-18T00:43:32.677Z,5.43
2018-06-18T00:46:01.251Z,5.07
2018-06-18T00:48:29.815Z,6.07
2018-06-18T00:50:58.572Z,5.90
2018-06-18T00:53:27.159Z,5.10
2018-06-18T00:56:10.003Z,5.33
2018-06-18T00:58:39.016Z,4.87
2018-06-18T01:01:07.648Z,4.93
2018-06-18T01:03:36.212Z,4.73
2018-06-18T01:06:04.907Z,6.07
2018-06-18T01:08:33.499Z,5.60
2018-06-18T01:11:02.315Z,5.27
2018-06-18T01:13:30.836Z,5.50
2018-06-18T01:15:59.436Z,6.10
2018-06-18T01:18:28.308Z,4.90
2018-06-18T01:20:57.192Z,6.30
2018-06-18T01:23:35.405Z,7.17
2018-06-18T01:26:03.980Z,5.80
2018-06-18T01:28:32.495Z,5.20
2018-06-18T01:31:01.061Z,4.90
2018-06-18T01:33:29.640Z,5.50
2018-06-18T01:35:58.210Z,5.13
2018-06-18T01:38:26.727Z,5.13
2018-06-18T01:40:55.306Z,5.03
2018-06-18T01:43:23.847Z,4.60
2018-06-18T01:45:58.778Z,4.67
2018-06-18T01:48:27.339Z,5.20
2018-06-18T01:50:55.930Z,5.00
2018-06-18T01:53:24.581Z,6.03
2018-06-18T01:55:53.124Z,5.20
2018-06-18T01:58:21.652Z,5.00
2018-06-18T02:00:50.252Z,5.70
2018-06-18T02:03:18.754Z,6.33
2018-06-18T02:05:47.266Z,6.63
2018-06-18T02:08:15.795Z,6.53
2018-06-18T02:10:44.350Z,6.93
2018-06-18T02:13:12.857Z,6.80
2018-06-18T02:15:41.435Z,6.50
2018-06-18T02:18:09.993Z,6.30
2018-06-18T02:20:38.540Z,6.90
2018-06-18T02:23:07.116Z,6.63
2018-06-18T02:25:35.676Z,6.23
2018-06-18T02:28:09.548Z,6.27
2018-06-18T02:30:43.404Z,6.33
2018-06-18T02:33:17.407Z,5.80
2018-06-18T02:35:51.326Z,4.87
2018-06-18T02:38:25.240Z,4.80
2018-06-18T02:40:53.794Z,4.10
2018-06-18T02:43:22.331Z,5.40
2018-06-18T02:45:50.854Z,3.73
2018-06-18T02:48:19.459Z,4.97
2018-06-18T02:50:47.988Z,3.90
2018-06-18T02:53:16.596Z,5.10
2018-06-18T02:55:47.119Z,4.17
2018-06-18T02:58:15.640Z,4.40
2018-06-18T03:00:44.239Z,4.60
2018-06-18T03:03:12.740Z,4.30
2018-06-18T03:05:41.296Z,5.57
2018-06-18T03:08:09.807Z,4.20
2018-06-18T03:10:38.329Z,5.47
2018-06-18T03:13:06.916Z,4.97
2018-06-18T03:15:35.156Z,4.40
2018-06-18T03:18:03.644Z,5.03
2018-06-18T03:20:37.567Z,5.10
2018-06-18T03:23:11.397Z,5.37
2018-06-18T03:25:45.318Z,6.53
2018-06-18T03:28:19.225Z,5.53
2018-06-18T03:30:47.720Z,5.70
2018-06-18T03:33:16.255Z,5.70
2018-06-18T03:35:44.471Z,4.40
2018-06-18T03:38:13.058Z,5.00
2018-06-18T03:40:41.605Z,4.60
2018-06-18T03:43:10.151Z,3.93
2018-06-18T03:45:38.712Z,3.47
2018-06-18T03:48:12.043Z,3.73
2018-06-18T03:50:40.631Z,4.10
2018-06-18T03:53:09.257Z,3.03
2018-06-18T03:55:50.363Z,3.60
2018-06-18T03:58:18.921Z,3.07
2018-06-18T04:02:00.656Z,3.77
2018-06-18T04:05:05.554Z,3.20
2018-06-18T04:07:40.077Z,3.40
2018-06-18T04:10:14.100Z,3.27
2018-06-18T04:12:42.689Z,3.40
2018-06-18T04:15:11.239Z,4.43
2018-06-18T04:17:39.770Z,4.20
2018-06-18T04:20:08.325Z,4.20
2018-06-18T04:22:36.850Z,4.43
2018-06-18T04:25:05.392Z,4.80
2018-06-18T04:27:40.738Z,4.83
2018-06-18T04:30:09.297Z,4.17
2018-06-18T04:32:37.829Z,4.30
2018-06-18T04:35:08.822Z,4.97
2018-06-18T04:37:37.399Z,5.20
2018-06-18T04:40:06.889Z,6.03
2018-06-18T04:42:40.666Z,5.70
2018-06-18T04:45:14.381Z,6.13
2018-06-18T04:47:48.162Z,6.23
2018-06-18T04:50:21.973Z,6.73
2018-06-18T04:52:50.559Z,6.50
2018-06-18T04:55:19.092Z,6.83
2018-06-18T04:57:47.629Z,6.00
2018-06-18T05:00:28.666Z,6.80
2018-06-18T05:02:57.183Z,6.40
2018-06-18T05:05:25.732Z,7.27
2018-06-18T05:08:02.365Z,8.20
2018-06-18T05:10:31.014Z,8.17
2018-06-18T05:12:59.589Z,7.80
2018-06-18T05:15:32.415Z,7.40
2018-06-18T05:18:00.927Z,7.40
2018-06-18T05:20:29.556Z,7.83
2018-06-18T05:22:58.125Z,7.90
2018-06-18T05:25:27.065Z,8.43
2018-06-18T05:27:55.588Z,7.37
2018-06-18T05:30:30.122Z,8.57
2018-06-18T05:32:58.761Z,8.03
2018-06-18T05:35:28.194Z,6.40
2018-06-18T05:38:14.406Z,7.60
2018-06-18T05:40:42.931Z,6.43
2018-06-18T05:43:11.744Z,6.53
2018-06-18T05:45:40.319Z,6.73
2018-06-18T05:48:08.885Z,5.67
2018-06-18T05:50:37.486Z,4.50
2018-06-18T05:53:05.997Z,6.77
2018-06-18T05:55:34.591Z,6.40
2018-06-18T05:58:03.145Z,7.03
2018-06-18T06:00:31.713Z,5.73
2018-06-18T06:03:00.230Z,6.50
2018-06-18T06:05:28.813Z,5.90
2018-06-18T06:07:57.349Z,5.90
2018-06-18T06:10:25.904Z,5.30
2018-06-18T06:12:54.456Z,6.23
2018-06-18T06:15:22.994Z,5.50
2018-06-18T06:17:51.268Z,7.37
2018-06-18T06:20:19.776Z,6.27
2018-06-18T06:22:48.391Z,7.43
2018-06-18T06:25:16.903Z,6.47
2018-06-18T06:27:45.504Z,5.03
2018-06-18T06:30:14.070Z,7.70
2018-06-18T06:32:42.725Z,5.47
2018-06-18T06:35:35.787Z,6.10
2018-06-18T06:38:04.359Z,6.80
2018-06-18T06:40:32.883Z,6.40
2018-06-18T06:43:01.487Z,6.83
2018-06-18T06:45:30.061Z,5.60
2018-06-18T06:47:58.575Z,5.90
2018-06-18T06:50:27.183Z,6.27
2018-06-18T06:52:55.708Z,5.77
2018-06-18T06:55:24.234Z,5.53
2018-06-18T06:57:52.783Z,5.33
2018-06-18T07:00:21.307Z,6.27
2018-06-18T07:02:49.871Z,4.87
2018-06-18T07:05:18.556Z,5.87
2018-06-18T07:07:47.183Z,5.10
2018-06-18T07:10:15.795Z,4.07
2018-06-18T07:12:44.363Z,4.63
2018-06-18T07:15:12.915Z,4.93
2018-06-18T07:17:42.342Z,5.30
2018-06-18T07:20:10.921Z,5.27
2018-06-18T07:22:39.482Z,5.53
2018-06-18T07:25:08.046Z,4.53
2018-06-18T07:27:36.646Z,4.87
2018-06-18T07:30:05.909Z,6.10
2018-06-18T07:32:34.494Z,5.70
2018-06-18T07:35:03.107Z,5.83
2018-06-18T07:37:31.746Z,6.33
2018-06-18T07:40:00.285Z,7.97
2018-06-18T07:42:28.945Z,5.73
2018-06-18T07:44:57.485Z,6.13
2018-06-18T07:47:25.997Z,4.87
2018-06-18T07:49:54.520Z,6.70
2018-06-18T07:52:23.061Z,5.37
2018-06-18T07:54:51.583Z,6.53
2018-06-18T07:57:20.139Z,5.50
2018-06-18T07:59:48.688Z,5.47
2018-06-18T08:02:17.207Z,5.60
2018-06-18T08:04:45.776Z,5.30
2018-06-18T08:07:14.312Z,6.00
2018-06-18T08:09:42.889Z,5.60
2018-06-18T08:12:11.411Z,4.17
2018-06-18T08:14:39.932Z,4.80
2018-06-18T08:17:08.488Z,5.00
2018-06-18T08:19:37.015Z,4.93
2018-06-18T08:22:05.561Z,4.20
2018-06-18T08:24:34.092Z,3.73
2018-06-18T08:27:02.712Z,4.70
2018-06-18T08:29:31.197Z,4.87
2018-06-18T08:31:59.719Z,5.47
2018-06-18T08:34:28.326Z,4.57
2018-06-18T08:36:56.917Z,4.50
2018-06-18T08:39:25.442Z,4.87
2018-06-18T08:41:53.973Z,4.70
2018-06-18T08:44:22.533Z,4.87
2018-06-18T08:46:51.089Z,4.67
2018-06-18T08:49:19.630Z,5.00
2018-06-18T08:51:53.459Z,4.70
2018-06-18T08:54:27.293Z,4.50
2018-06-18T08:57:01.171Z,4.40
2018-06-18T08:59:35.020Z,5.20
2018-06-18T09:02:03.578Z,4.50
2018-06-18T09:05:37.593Z,4.60
2018-06-18T09:08:12.375Z,4.20
2018-06-18T09:10:40.995Z,5.10
2018-06-18T09:13:09.499Z,4.30
2018-06-18T09:15:38.080Z,4.20
2018-06-18T09:18:06.742Z,3.37
2018-06-18T09:20:35.324Z,3.97
2018-06-18T09:23:06.211Z,3.60
2018-06-18T09:25:34.820Z,3.60
2018-06-18T09:28:03.445Z,3.70
2018-06-18T09:30:32.148Z,4.20
2018-06-18T09:33:00.674Z,3.33
2018-06-18T09:35:29.532Z,4.20
2018-06-18T09:37:58.142Z,3.90
2018-06-18T09:40:26.870Z,3.63
2018-06-18T09:42:55.473Z,4.30
2018-06-18T09:45:24.046Z,3.40
2018-06-18T09:47:52.568Z,3.40
2018-06-18T09:50:26.488Z,4.07
2018-06-18T09:53:00.280Z,4.03
2018-06-18T09:55:34.104Z,4.90
2018-06-18T09:58:07.930Z,3.70
2018-06-18T10:00:54.481Z,3.60
2018-06-18T10:03:23.667Z,3.67
2018-06-18T10:05:52.233Z,3.70
2018-06-18T10:08:20.890Z,2.77
2018-06-18T10:10:49.466Z,3.67
2018-06-18T10:13:18.045Z,4.07
2018-06-18T10:15:46.586Z,3.97
2018-06-18T10:18:15.111Z,3.77
2018-06-18T10:20:43.685Z,4.23
2018-06-18T10:23:12.233Z,4.13
2018-06-18T10:25:40.777Z,4.57
2018-06-18T10:28:09.351Z,3.53
2018-06-18T10:30:37.924Z,5.00
2018-06-18T10:33:11.785Z,4.50
2018-06-18T10:35:45.543Z,5.97
2018-06-18T10:39:23.346Z,5.00
2018-06-18T10:41:56.851Z,3.90
2018-06-18T10:44:25.417Z,3.27
2018-06-18T10:46:53.984Z,3.63
2018-06-18T10:49:22.606Z,4.07
2018-06-18T10:51:51.166Z,4.43
2018-06-18T10:54:19.725Z,3.60
2018-06-18T10:56:48.276Z,3.90
2018-06-18T10:59:16.847Z,3.30
2018-06-18T11:01:45.427Z,3.17
2018-06-18T11:04:18.880Z,2.80
2018-06-18T11:06:47.425Z,3.33
2018-06-18T11:09:15.975Z,4.00
2018-06-18T11:11:44.551Z,2.50
2018-06-18T11:14:13.092Z,2.97
2018-06-18T11:16:41.834Z,2.53
2018-06-18T11:19:15.520Z,3.00
2018-06-18T11:21:49.400Z,3.00
2018-06-18T11:24:23.453Z,2.93
2018-06-18T11:26:55.444Z,3.17
2018-06-18T11:29:24.021Z,3.60
2018-06-18T11:31:52.848Z,4.40
2018-06-18T11:34:21.388Z,2.97
2018-06-18T11:36:49.722Z,3.40
2018-06-18T11:39:18.225Z,3.20
2018-06-18T11:41:46.764Z,3.60
2018-06-18T11:44:15.312Z,3.00
2018-06-18T11:46:43.906Z,3.10
2018-06-18T11:49:12.568Z,2.63
2018-06-18T11:51:41.145Z,2.73
2018-06-18T11:54:09.707Z,2.70
2018-06-18T11:56:38.253Z,2.93
2018-06-18T12:00:10.145Z,2.70
2018-06-18T12:02:44.017Z,3.00
2018-06-18T12:05:17.861Z,3.00
2018-06-18T12:07:51.823Z,2.90
2018-06-18T12:10:20.429Z,2.37
2018-06-18T12:12:48.986Z,2.77
2018-06-18T12:15:17.537Z,2.53
2018-06-18T12:17:46.150Z,2.63
2018-06-18T12:20:14.718Z,2.77
2018-06-18T12:22:43.224Z,2.87
2018-06-18T12:25:11.777Z,2.33
2018-06-18T12:27:40.364Z,3.17
2018-06-18T12:30:09.075Z,2.43
2018-06-18T12:32:37.666Z,2.90
2018-06-18T12:35:06.285Z,3.23
2018-06-18T12:37:34.842Z,2.60
2018-06-18T12:40:03.476Z,2.40
2018-06-18T12:42:31.981Z,2.40
2018-06-18T12:45:05.920Z,2.50
2018-06-18T12:47:39.782Z,2.17
2018-06-18T12:50:13.670Z,3.10
2018-06-18T12:52:47.583Z,2.37
2018-06-18T12:55:21.429Z,2.80
2018-06-18T12:57:50.027Z,2.80
2018-06-18T13:00:18.599Z,2.80
2018-06-18T13:02:49.554Z,2.70
2018-06-18T13:05:18.096Z,2.50
2018-06-18T13:07:46.611Z,2.93
2018-06-18T13:10:15.269Z,2.60
2018-06-18T13:12:43.802Z,2.77
2018-06-18T13:15:12.333Z,3.50
2018-06-18T13:17:40.898Z,2.90
2018-06-18T13:20:09.459Z,3.40
2018-06-18T13:22:38.005Z,3.57
2018-06-18T13:25:06.597Z,2.93
2018-06-18T13:27:40.352Z,2.63
2018-06-18T13:30:08.933Z,2.90
2018-06-18T13:32:37.483Z,3.10
2018-06-18T13:35:06.093Z,2.70
2018-06-18T13:37:40.035Z,2.60
2018-06-18T13:40:13.717Z,3.33
2018-06-18T13:42:47.593Z,2.27
2018-06-18T13:45:21.568Z,3.27
2018-06-18T13:47:55.370Z,3.10
2018-06-18T13:50:23.935Z,2.90
2018-06-18T13:52:52.503Z,3.10
2018-06-18T13:55:21.030Z,3.00
2018-06-18T13:57:49.933Z,3.07
2018-06-18T14:00:19.038Z,2.10
2018-06-18T14:02:47.945Z,2.53
2018-06-18T14:05:16.697Z,2.43
2018-06-18T14:07:45.235Z,2.60
2018-06-18T14:10:13.874Z,2.90
2018-06-18T14:12:42.417Z,2.97
2018-06-18T14:15:10.977Z,3.10
2018-06-18T14:17:42.460Z,2.77
2018-06-18T14:20:16.450Z,2.77
2018-06-18T14:22:45.232Z,3.23
2018-06-18T14:25:13.786Z,2.90
2018-06-18T14:27:42.333Z,2.40
2018-06-18T14:30:16.381Z,2.70
2018-06-18T14:32:50.199Z,2.77
2018-06-18T14:35:23.997Z,2.83
2018-06-18T14:37:58.006Z,2.80
2018-06-18T14:40:26.659Z,2.83
2018-06-18T14:42:54.886Z,3.20
2018-06-18T14:45:23.441Z,3.10
2018-06-18T14:47:52.034Z,3.70
2018-06-18T14:50:20.575Z,3.20
2018-06-18T14:52:49.165Z,3.33
2018-06-18T14:55:17.780Z,2.90
2018-06-18T14:57:46.761Z,3.40
2018-06-18T15:00:25.307Z,2.93
2018-06-18T15:02:54.097Z,3.20
2018-06-18T15:05:23.449Z,3.40
2018-06-18T15:07:52.038Z,3.23
2018-06-18T15:10:20.359Z,3.30
2018-06-18T15:12:51.199Z,3.33
2018-06-18T15:15:25.130Z,3.33
2018-06-18T15:17:53.708Z,2.97
2018-06-18T15:20:22.424Z,3.50
2018-06-18T15:22:57.639Z,3.50
2018-06-18T15:25:28.023Z,3.30
2018-06-18T15:27:56.590Z,2.57
2018-06-18T15:30:25.181Z,3.80
2018-06-18T15:32:53.750Z,4.00
2018-06-18T15:35:22.316Z,3.20
2018-06-18T15:37:50.877Z,3.70
2018-06-18T15:40:19.409Z,3.27
2018-06-18T15:42:47.960Z,2.93
2018-06-18T15:45:16.521Z,3.30
2018-06-18T15:47:45.070Z,3.40
2018-06-18T15:50:13.735Z,3.73
2018-06-18T15:52:42.560Z,3.47
2018-06-18T15:55:11.307Z,3.13
2018-06-18T15:57:39.920Z,3.27
2018-06-18T16:00:08.545Z,3.50
2018-06-18T16:02:37.091Z,3.50
2018-06-18T16:05:05.951Z,2.53
2018-06-18T16:07:34.672Z,3.63
2018-06-18T16:10:03.622Z,3.50
2018-06-18T16:12:32.129Z,3.50
2018-06-18T16:15:00.681Z,3.33
2018-06-18T16:17:29.240Z,3.43
2018-06-18T16:19:57.779Z,4.30
2018-06-18T16:22:26.356Z,3.03
2018-06-18T16:24:54.942Z,3.20
2018-06-18T16:27:23.475Z,3.40
2018-06-18T16:29:52.066Z,3.33
2018-06-18T16:32:20.675Z,3.90
2018-06-18T16:34:50.131Z,3.57
2018-06-18T16:37:22.216Z,4.13
2018-06-18T16:39:50.837Z,3.43
2018-06-18T16:42:19.376Z,4.33
2018-06-18T16:44:47.934Z,3.60
2018-06-18T16:47:16.956Z,3.40
2018-06-18T16:49:45.492Z,3.50
2018-06-18T16:52:14.108Z,3.23
2018-06-18T16:54:42.741Z,4.30
2018-06-18T16:57:11.508Z,3.90
2018-06-18T16:59:40.143Z,3.47
2018-06-18T17:02:08.700Z,5.40
2018-06-18T17:04:37.255Z,4.60
2018-06-18T17:07:05.913Z,3.50
2018-06-18T17:09:34.500Z,3.87
2018-06-18T17:12:03.610Z,4.57
2018-06-18T17:14:32.247Z,4.80
2018-06-18T17:17:00.889Z,4.07
2018-06-18T17:19:29.470Z,4.10
2018-06-18T17:21:58.296Z,4.93
2018-06-18T17:24:26.826Z,4.90
2018-06-18T17:26:55.367Z,4.13
2018-06-18T17:29:23.972Z,4.40
2018-06-18T17:31:52.564Z,4.27
2018-06-18T17:34:21.116Z,4.10
2018-06-18T17:36:49.699Z,4.03
2018-06-18T17:39:18.295Z,4.03
2018-06-18T17:41:46.849Z,4.17
2018-06-18T17:44:15.441Z,3.53
2018-06-18T17:46:43.945Z,4.23
2018-06-18T17:49:12.617Z,4.00
2018-06-18T17:51:41.211Z,3.10
2018-06-18T17:54:09.773Z,3.70
2018-06-18T17:56:38.283Z,4.37
2018-06-18T17:59:06.904Z,4.10
2018-06-18T18:01:35.451Z,4.03
2018-06-18T18:04:04.258Z,4.53
2018-06-18T18:06:32.861Z,3.80
2018-06-18T18:09:01.385Z,3.70
2018-06-18T18:11:29.884Z,3.40
2018-06-18T18:13:58.461Z,3.47
2018-06-18T18:16:27.023Z,2.60
2018-06-18T18:18:55.651Z,3.30
2018-06-18T18:21:24.221Z,3.60
2018-06-18T18:23:52.786Z,2.90
2018-06-18T18:26:21.282Z,3.37
2018-06-18T18:28:50.038Z,2.67
2018-06-18T18:31:18.495Z,3.70
2018-06-18T18:33:47.074Z,2.77
2018-06-18T18:36:15.677Z,3.60
2018-06-18T18:38:44.234Z,3.77
2018-06-18T18:41:12.880Z,3.37
2018-06-18T18:43:41.472Z,3.40
2018-06-18T18:46:10.041Z,4.00
2018-06-18T18:48:38.560Z,4.47
2018-06-18T18:51:07.189Z,3.23
2018-06-18T18:53:35.729Z,4.40
2018-06-18T18:56:15.325Z,3.70
2018-06-18T18:58:57.846Z,4.90
2018-06-18T19:01:26.869Z,4.40
2018-06-18T19:03:59.065Z,3.70
2018-06-18T19:06:27.662Z,4.67
2018-06-18T19:08:56.215Z,4.47
2018-06-18T19:11:24.833Z,3.70
2018-06-18T19:13:53.425Z,3.90
2018-06-18T19:16:21.940Z,4.70
2018-06-18T19:18:56.138Z,4.53
2018-06-18T19:21:24.694Z,4.07
2018-06-18T19:23:53.350Z,4.40
2018-06-18T19:26:21.932Z,4.13
2018-06-18T19:28:50.444Z,4.63
2018-06-18T19:31:22.232Z,5.00
2018-06-18T19:33:59.328Z,3.90
2018-06-18T19:36:27.880Z,4.67
2018-06-18T19:38:56.424Z,4.43
2018-06-18T19:41:24.948Z,5.20
2018-06-18T19:43:53.902Z,5.20
2018-06-18T19:46:26.806Z,5.47
2018-06-18T19:49:00.295Z,5.67
2018-06-18T19:51:28.842Z,6.37
2018-06-18T19:53:57.421Z,6.30
2018-06-18T19:56:27.113Z,5.77
2018-06-18T19:58:55.648Z,5.83
2018-06-18T20:01:24.206Z,6.03
2018-06-18T20:03:52.839Z,4.10
2018-06-18T20:06:21.413Z,5.40
2018-06-18T20:08:49.970Z,7.87
2018-06-18T20:11:18.575Z,8.97
2018-06-18T20:13:46.793Z,7.37
2018-06-18T20:16:15.378Z,9.07
2018-06-18T20:18:43.930Z,13.97
2018-06-18T20:21:12.476Z,14.40
2018-06-18T20:23:41.061Z,10.10
2018-06-18T20:26:13.611Z,10.70
2018-06-18T20:28:42.153Z,9.73
2018-06-18T20:31:10.721Z,9.60
2018-06-18T20:33:43.785Z,7.30
2018-06-18T20:36:13.949Z,7.27
2018-06-18T20:38:42.533Z,7.00
2018-06-18T20:41:11.368Z,7.87
2018-06-18T20:43:49.773Z,6.23
2018-06-18T20:46:18.325Z,5.80
2018-06-18T20:48:46.892Z,5.33
2018-06-18T20:51:15.458Z,4.83
2018-06-18T20:53:44.053Z,5.40
2018-06-18T20:56:12.632Z,4.83
2018-06-18T20:58:41.164Z,5.00
2018-06-18T21:01:09.861Z,7.50
2018-06-18T21:03:38.405Z,4.67
2018-06-18T21:06:06.969Z,4.77
2018-06-18T21:08:35.652Z,4.20
2018-06-18T21:11:04.280Z,4.33
2018-06-18T21:13:32.847Z,4.93
2018-06-18T21:16:01.475Z,4.87
2018-06-18T21:18:30.043Z,5.23
2018-06-18T21:20:58.585Z,6.03
2018-06-18T21:23:27.188Z,6.23
2018-06-18T21:25:55.744Z,5.10
2018-06-18T21:28:24.327Z,5.87
2018-06-18T21:30:52.903Z,7.20
2018-06-18T21:33:21.095Z,6.57
2018-06-18T21:35:49.646Z,6.40
2018-06-18T21:38:18.211Z,6.20
2018-06-18T21:40:46.733Z,7.47
2018-06-18T21:43:15.300Z,7.30
2018-06-18T21:45:43.906Z,7.63
2018-06-18T21:48:12.404Z,7.47
2018-06-18T21:50:40.954Z,6.90
2018-06-18T21:53:09.675Z,6.20
2018-06-18T21:55:38.246Z,6.70
2018-06-18T21:58:07.198Z,5.97
2018-06-18T22:00:38.595Z,5.50
2018-06-18T22:03:07.289Z,5.90
2018-06-18T22:05:35.874Z,6.73
2018-06-18T22:08:06.297Z,5.40
2018-06-18T22:10:34.843Z,5.73
2018-06-18T22:13:03.044Z,6.03
2018-06-18T22:15:31.634Z,5.40
2018-06-18T22:18:00.205Z,6.53
2018-06-18T22:20:28.746Z,5.83
2018-06-18T22:22:57.391Z,6.70
2018-06-18T22:25:26.159Z,6.20
2018-06-18T22:27:54.901Z,6.30
2018-06-18T22:30:23.528Z,7.30
2018-06-18T22:32:52.080Z,6.57
2018-06-18T22:35:20.601Z,6.40
2018-06-18T22:37:49.210Z,6.20
2018-06-18T22:40:17.774Z,6.63
2018-06-18T22:42:46.350Z,6.37
2018-06-18T22:45:14.969Z,5.77
2018-06-18T22:47:43.953Z,6.40
2018-06-18T22:50:12.533Z,7.47
2018-06-18T22:52:41.161Z,6.87
2018-06-18T22:55:09.753Z,6.90
2018-06-18T22:57:38.433Z,5.73
2018-06-18T23:00:07.039Z,5.97
2018-06-18T23:02:35.601Z,5.97
2018-06-18T23:05:04.188Z,6.27
2018-06-18T23:07:32.792Z,6.60
2018-06-18T23:10:01.402Z,6.77
2018-06-18T23:12:34.099Z,7.80
2018-06-18T23:15:02.684Z,6.50
2018-06-18T23:17:31.247Z,6.63
2018-06-18T23:19:59.801Z,6.30
2018-06-18T23:22:28.335Z,7.47
2018-06-18T23:24:56.925Z,6.73
2018-06-18T23:27:25.502Z,5.73
2018-06-18T23:29:54.071Z,6.77
2018-06-18T23:32:22.685Z,6.40
2018-06-18T23:34:51.242Z,6.80
2018-06-18T23:37:19.768Z,6.10
2018-06-18T23:39:48.318Z,7.40
2018-06-18T23:42:16.963Z,6.50
2018-06-18T23:44:45.582Z,7.17
2018-06-18T23:47:14.497Z,7.20
2018-06-18T23:49:43.105Z,6.37
2018-06-18T23:52:11.680Z,6.73
2018-06-18T23:54:40.248Z,6.43
2018-06-18T23:57:08.819Z,7.30
2018-06-18T23:59:37.388Z,6.27
